Terminal Aerodrome Forecast
Issued by NWS

Home | Current Version | Previous Version | Text Only | Print | Product List | Glossary On
Versions: 1 2 3 4 5 6 7 8 9 10 11 12 13 14 15 16 17 18 19 20 21 22 23 24 25 26 27
000
FTPA31 PHFO 201700
TAFJRF
TAF
PHJR 201721Z 2018/2118 VRB03KT P6SM FEW045
     FM202100 15009KT P6SM SCT045
     FM210300 VRB03KT P6SM FEW045=

USA.gov is the U.S. government's official web portal to all federal, state and local government web resources and services.